EJU61ME LMML-LFMN
Flight info
| Callsign | EJU61ME |
|---|---|
| Flight time | 1h 45m |
| Altitude | 30000 |
| Route | GZO M622 ADEXI DCT PAL DCT GIANO DCT POKAV DCT ABIDU DCT OKIDO DCT RUGOX DCT MADKA DCT AJO DCT BEBEV DCT OMEDA M622 LONSU |
| Aircraft | A20N/M-SDE2E3FGHIJ1RWXYZ/LB1G1 |
Departure
| Time | 2026-05-06 12:57 |
|---|---|
| Airport | Malta International Airport (LMML) |
Arrival
| Time | 2026-05-06 14:42 |
|---|---|
| Airport | Nice-Côte d'Azur Airport (LFMN) |
| Time | Latitude | Longitude | Altitude | Speed | Heading |
|---|---|---|---|---|---|
| 2026-05-06 12:35 | 35.85139 | 14.48919 | 259 ft | 0 kts | 44° |
| 2026-05-06 12:47 | 35.85137 | 14.48917 | 259 ft | 2 kts | 44° |
| 2026-05-06 12:47 | 35.85126 | 14.48904 | 259 ft | 2 kts | 43° |
| 2026-05-06 12:48 | 35.85119 | 14.48895 | 259 ft | 0 kts | 43° |
| 2026-05-06 12:48 | 35.85111 | 14.48887 | 259 ft | 2 kts | 33° |
| 2026-05-06 12:48 | 35.85097 | 14.48879 | 259 ft | 2 kts | 16° |
| 2026-05-06 12:48 | 35.85082 | 14.48876 | 259 ft | 2 kts | 358° |
| 2026-05-06 12:49 | 35.85072 | 14.48877 | 259 ft | 0 kts | 347° |
| 2026-05-06 12:49 | 35.85062 | 14.48880 | 258 ft | 2 kts | 336° |
| 2026-05-06 12:49 | 35.85049 | 14.48890 | 258 ft | 1 kts | 319° |
| 2026-05-06 12:49 | 35.85044 | 14.48896 | 258 ft | 1 kts | 312° |
| 2026-05-06 12:50 | 35.85042 | 14.48898 | 258 ft | 0 kts | 314° |
| 2026-05-06 12:50 | 35.85043 | 14.48897 | 258 ft | 0 kts | 314° |
| 2026-05-06 12:50 | 35.85044 | 14.48895 | 258 ft | 0 kts | 313° |
| 2026-05-06 12:52 | 35.85045 | 14.48894 | 258 ft | 0 kts | 313° |
| 2026-05-06 12:52 | 35.85058 | 14.48877 | 258 ft | 4 kts | 314° |
| 2026-05-06 12:52 | 35.85090 | 14.48838 | 259 ft | 8 kts | 315° |
| 2026-05-06 12:52 | 35.85140 | 14.48777 | 260 ft | 11 kts | 315° |
| 2026-05-06 12:53 | 35.85204 | 14.48699 | 261 ft | 14 kts | 315° |
| 2026-05-06 12:53 | 35.85263 | 14.48626 | 260 ft | 0 kts | 315° |
| 2026-05-06 12:54 | 35.85268 | 14.48620 | 260 ft | 2 kts | 315° |
| 2026-05-06 12:54 | 35.85284 | 14.48588 | 260 ft | 5 kts | 275° |
| 2026-05-06 12:55 | 35.85258 | 14.48534 | 261 ft | 8 kts | 224° |
| 2026-05-06 12:55 | 35.85213 | 14.48481 | 261 ft | 8 kts | 221° |
| 2026-05-06 12:55 | 35.85161 | 14.48477 | 260 ft | 9 kts | 133° |
| 2026-05-06 12:55 | 35.85143 | 14.48503 | 260 ft | 0 kts | 133° |
| 2026-05-06 12:56 | 35.85130 | 14.48518 | 260 ft | 16 kts | 135° |
| 2026-05-06 12:56 | 35.84855 | 14.48860 | 257 ft | 93 kts | 134° |
| 2026-05-06 12:56 | 35.84239 | 14.49622 | 252 ft | 154 kts | 134° |
| 2026-05-06 12:57 | 35.83442 | 14.50588 | 786 ft | 164 kts | 135° |
| 2026-05-06 12:57 | 35.82476 | 14.51348 | 1457 ft | 175 kts | 167° |
| 2026-05-06 12:57 | 35.81311 | 14.51054 | 2309 ft | 180 kts | 205° |
| 2026-05-06 12:57 | 35.80431 | 14.49842 | 2807 ft | 204 kts | 233° |
| 2026-05-06 12:58 | 35.79664 | 14.48253 | 3205 ft | 227 kts | 234° |
| 2026-05-06 12:58 | 35.78819 | 14.46544 | 3827 ft | 240 kts | 234° |
| 2026-05-06 12:58 | 35.77920 | 14.44745 | 4421 ft | 255 kts | 235° |
| 2026-05-06 12:58 | 35.77020 | 14.42800 | 5084 ft | 270 kts | 245° |
| 2026-05-06 12:59 | 35.76788 | 14.40503 | 5951 ft | 279 kts | 277° |
| 2026-05-06 12:59 | 35.77398 | 14.38267 | 6908 ft | 280 kts | 292° |
| 2026-05-06 12:59 | 35.78199 | 14.36090 | 7808 ft | 283 kts | 293° |
| 2026-05-06 12:59 | 35.79012 | 14.33905 | 8741 ft | 284 kts | 296° |
| 2026-05-06 13:00 | 35.80222 | 14.32022 | 9659 ft | 286 kts | 321° |
| 2026-05-06 13:00 | 35.81953 | 14.30873 | 10620 ft | 286 kts | 336° |
| 2026-05-06 13:00 | 35.83831 | 14.30029 | 11439 ft | 291 kts | 339° |
| 2026-05-06 13:00 | 35.85748 | 14.29204 | 12219 ft | 295 kts | 338° |
| 2026-05-06 13:01 | 35.87675 | 14.28341 | 13048 ft | 298 kts | 337° |
| 2026-05-06 13:01 | 35.89614 | 14.27434 | 13843 ft | 301 kts | 336° |
| 2026-05-06 13:01 | 35.91572 | 14.26495 | 14610 ft | 305 kts | 335° |
| 2026-05-06 13:01 | 35.93551 | 14.25530 | 15332 ft | 309 kts | 335° |
| 2026-05-06 13:02 | 35.95570 | 14.24542 | 16048 ft | 313 kts | 335° |
| 2026-05-06 13:02 | 35.97626 | 14.23533 | 16770 ft | 317 kts | 335° |
| 2026-05-06 13:02 | 35.99699 | 14.22513 | 17465 ft | 321 kts | 335° |
| 2026-05-06 13:02 | 36.01783 | 14.21482 | 18126 ft | 325 kts | 333° |
| 2026-05-06 13:03 | 36.03820 | 14.20263 | 18800 ft | 326 kts | 327° |
| 2026-05-06 13:03 | 36.05736 | 14.18789 | 19498 ft | 326 kts | 321° |
| 2026-05-06 13:03 | 36.07587 | 14.17171 | 20178 ft | 328 kts | 321° |
| 2026-05-06 13:03 | 36.09447 | 14.15514 | 20833 ft | 331 kts | 320° |
| 2026-05-06 13:04 | 36.11320 | 14.13848 | 21466 ft | 334 kts | 321° |
| 2026-05-06 13:04 | 36.13208 | 14.12181 | 22096 ft | 336 kts | 321° |
| 2026-05-06 13:04 | 36.15112 | 14.10499 | 22723 ft | 338 kts | 321° |
| 2026-05-06 13:04 | 36.17023 | 14.08806 | 23316 ft | 340 kts | 321° |
| 2026-05-06 13:05 | 36.18951 | 14.07098 | 23912 ft | 342 kts | 321° |
| 2026-05-06 13:05 | 36.20889 | 14.05382 | 24496 ft | 345 kts | 321° |
| 2026-05-06 13:05 | 36.22839 | 14.03650 | 25063 ft | 347 kts | 321° |
| 2026-05-06 13:05 | 36.24807 | 14.01900 | 25598 ft | 350 kts | 321° |
| 2026-05-06 13:06 | 36.26787 | 14.00139 | 26142 ft | 352 kts | 321° |
| 2026-05-06 13:06 | 36.28777 | 13.98368 | 26692 ft | 354 kts | 321° |
| 2026-05-06 13:06 | 36.30773 | 13.96587 | 27213 ft | 356 kts | 321° |
| 2026-05-06 13:06 | 36.32786 | 13.94792 | 27708 ft | 358 kts | 321° |
| 2026-05-06 13:07 | 36.34808 | 13.92988 | 28204 ft | 360 kts | 321° |
| 2026-05-06 13:07 | 36.36845 | 13.91170 | 28678 ft | 362 kts | 321° |
| 2026-05-06 13:07 | 36.38893 | 13.89341 | 29143 ft | 364 kts | 321° |
| 2026-05-06 13:07 | 36.40952 | 13.87501 | 29618 ft | 366 kts | 321° |
| 2026-05-06 13:08 | 36.43018 | 13.85649 | 29920 ft | 368 kts | 321° |
| 2026-05-06 13:08 | 36.47170 | 13.81925 | 29957 ft | 368 kts | 321° |
| 2026-05-06 13:09 | 36.51321 | 13.78211 | 29960 ft | 368 kts | 321° |
| 2026-05-06 13:09 | 36.55474 | 13.74499 | 29960 ft | 369 kts | 321° |
| 2026-05-06 13:10 | 36.59630 | 13.70771 | 29958 ft | 369 kts | 321° |
| 2026-05-06 13:10 | 36.63775 | 13.67046 | 29953 ft | 368 kts | 321° |
| 2026-05-06 13:11 | 36.67918 | 13.63314 | 29951 ft | 368 kts | 321° |
| 2026-05-06 13:11 | 36.72058 | 13.59579 | 29948 ft | 368 kts | 321° |
| 2026-05-06 13:12 | 36.76205 | 13.55834 | 29953 ft | 369 kts | 321° |
| 2026-05-06 13:12 | 36.80351 | 13.52083 | 29950 ft | 368 kts | 321° |
| 2026-05-06 13:13 | 36.84488 | 13.48335 | 29962 ft | 368 kts | 321° |
| 2026-05-06 13:13 | 36.88628 | 13.44576 | 29965 ft | 369 kts | 321° |
| 2026-05-06 13:14 | 36.92774 | 13.40806 | 29966 ft | 370 kts | 321° |
| 2026-05-06 13:14 | 36.96936 | 13.37021 | 29963 ft | 370 kts | 321° |
| 2026-05-06 13:15 | 37.01089 | 13.33228 | 29963 ft | 370 kts | 320° |
| 2026-05-06 13:15 | 37.05245 | 13.29413 | 29962 ft | 370 kts | 320° |
| 2026-05-06 13:16 | 37.09405 | 13.25606 | 29960 ft | 371 kts | 320° |
| 2026-05-06 13:16 | 37.13606 | 13.21780 | 29958 ft | 372 kts | 320° |
| 2026-05-06 13:17 | 37.17796 | 13.17958 | 29956 ft | 373 kts | 320° |
| 2026-05-06 13:17 | 37.21984 | 13.14126 | 29957 ft | 373 kts | 320° |
| 2026-05-06 13:18 | 37.26169 | 13.10281 | 29955 ft | 374 kts | 320° |
| 2026-05-06 13:18 | 37.30359 | 13.06423 | 29952 ft | 375 kts | 320° |
| 2026-05-06 13:19 | 37.34558 | 13.02555 | 29949 ft | 375 kts | 320° |
| 2026-05-06 13:19 | 37.38837 | 12.98828 | 29947 ft | 375 kts | 322° |
| 2026-05-06 13:20 | 37.43142 | 12.95133 | 29947 ft | 375 kts | 321° |
| 2026-05-06 13:20 | 37.47438 | 12.91419 | 29945 ft | 375 kts | 321° |
| 2026-05-06 13:21 | 37.51733 | 12.87693 | 29944 ft | 375 kts | 321° |
| 2026-05-06 13:21 | 37.56025 | 12.83964 | 29944 ft | 375 kts | 321° |
| 2026-05-06 13:22 | 37.60311 | 12.80233 | 29944 ft | 375 kts | 321° |
| 2026-05-06 13:22 | 37.64590 | 12.76496 | 29942 ft | 375 kts | 321° |
| 2026-05-06 13:23 | 37.68868 | 12.72757 | 29945 ft | 374 kts | 321° |
| 2026-05-06 13:23 | 37.73141 | 12.69019 | 29946 ft | 375 kts | 321° |
| 2026-05-06 13:24 | 37.77417 | 12.65273 | 29949 ft | 375 kts | 321° |
| 2026-05-06 13:24 | 37.81694 | 12.61521 | 29948 ft | 375 kts | 321° |
| 2026-05-06 13:25 | 37.85977 | 12.57756 | 29950 ft | 375 kts | 321° |
| 2026-05-06 13:25 | 37.90261 | 12.53988 | 29951 ft | 376 kts | 321° |
| 2026-05-06 13:26 | 37.94554 | 12.50206 | 29951 ft | 376 kts | 321° |
| 2026-05-06 13:26 | 37.98853 | 12.46415 | 29950 ft | 377 kts | 321° |
| 2026-05-06 13:27 | 38.03156 | 12.42614 | 29945 ft | 376 kts | 321° |
| 2026-05-06 13:27 | 38.07444 | 12.38818 | 29944 ft | 376 kts | 321° |
| 2026-05-06 13:28 | 38.11730 | 12.35024 | 29944 ft | 377 kts | 321° |
| 2026-05-06 13:28 | 38.16032 | 12.31209 | 29941 ft | 377 kts | 320° |
| 2026-05-06 13:29 | 38.20335 | 12.27380 | 29940 ft | 378 kts | 320° |
| 2026-05-06 13:29 | 38.24632 | 12.23552 | 29940 ft | 378 kts | 320° |
| 2026-05-06 13:30 | 38.28935 | 12.19719 | 29940 ft | 379 kts | 319° |
| 2026-05-06 13:30 | 38.33248 | 12.15865 | 29948 ft | 379 kts | 319° |
| 2026-05-06 13:31 | 38.37557 | 12.12013 | 29947 ft | 378 kts | 319° |
| 2026-05-06 13:31 | 38.41854 | 12.08168 | 29947 ft | 378 kts | 319° |
| 2026-05-06 13:32 | 38.46156 | 12.04312 | 29949 ft | 379 kts | 319° |
| 2026-05-06 13:32 | 38.50465 | 12.00438 | 29947 ft | 380 kts | 319° |
| 2026-05-06 13:33 | 38.54790 | 11.96548 | 29945 ft | 381 kts | 319° |
| 2026-05-06 13:33 | 38.59123 | 11.92644 | 29942 ft | 381 kts | 319° |
| 2026-05-06 13:34 | 38.63443 | 11.88749 | 29942 ft | 381 kts | 318° |
| 2026-05-06 13:34 | 38.67764 | 11.84840 | 29949 ft | 382 kts | 318° |
| 2026-05-06 13:35 | 38.72105 | 11.80912 | 29946 ft | 383 kts | 318° |
| 2026-05-06 13:35 | 38.76444 | 11.76980 | 29951 ft | 383 kts | 318° |
| 2026-05-06 13:36 | 38.80773 | 11.73055 | 29951 ft | 382 kts | 318° |
| 2026-05-06 13:36 | 38.85104 | 11.69114 | 29953 ft | 382 kts | 317° |
| 2026-05-06 13:37 | 38.89433 | 11.65172 | 29951 ft | 382 kts | 317° |
| 2026-05-06 13:37 | 38.93764 | 11.61223 | 29955 ft | 383 kts | 317° |
| 2026-05-06 13:38 | 38.98106 | 11.57258 | 29949 ft | 383 kts | 317° |
| 2026-05-06 13:38 | 39.02457 | 11.53274 | 29955 ft | 385 kts | 317° |
| 2026-05-06 13:39 | 39.06796 | 11.49303 | 29956 ft | 383 kts | 317° |
| 2026-05-06 13:39 | 39.11136 | 11.45323 | 29957 ft | 385 kts | 317° |
| 2026-05-06 13:40 | 39.16211 | 11.40691 | 29957 ft | 383 kts | 317° |
| 2026-05-06 13:40 | 39.19825 | 11.37376 | 29956 ft | 383 kts | 317° |
| 2026-05-06 13:41 | 39.24159 | 11.33381 | 29960 ft | 384 kts | 316° |
| 2026-05-06 13:41 | 39.28491 | 11.29362 | 29956 ft | 383 kts | 316° |
| 2026-05-06 13:42 | 39.32826 | 11.25343 | 29954 ft | 383 kts | 317° |
| 2026-05-06 13:42 | 39.37159 | 11.21326 | 29960 ft | 383 kts | 316° |
| 2026-05-06 13:43 | 39.41486 | 11.17309 | 29958 ft | 384 kts | 317° |
| 2026-05-06 13:43 | 39.45819 | 11.13283 | 29953 ft | 385 kts | 317° |
| 2026-05-06 13:44 | 39.50153 | 11.09252 | 29951 ft | 385 kts | 316° |
| 2026-05-06 13:44 | 39.54498 | 11.05204 | 29945 ft | 386 kts | 316° |
| 2026-05-06 13:45 | 39.58842 | 11.01150 | 29945 ft | 385 kts | 317° |
| 2026-05-06 13:45 | 39.65362 | 10.95054 | 29941 ft | 387 kts | 316° |
| 2026-05-06 13:46 | 39.69713 | 10.90976 | 29944 ft | 387 kts | 316° |
| 2026-05-06 13:46 | 39.74066 | 10.86890 | 29941 ft | 387 kts | 317° |
| 2026-05-06 13:47 | 39.78426 | 10.82797 | 29941 ft | 386 kts | 316° |
| 2026-05-06 13:47 | 39.82763 | 10.78709 | 29939 ft | 387 kts | 316° |
| 2026-05-06 13:48 | 39.87130 | 10.74592 | 29939 ft | 389 kts | 316° |
| 2026-05-06 13:48 | 39.91493 | 10.70472 | 29944 ft | 389 kts | 316° |
| 2026-05-06 13:49 | 39.95868 | 10.66331 | 29942 ft | 389 kts | 316° |
| 2026-05-06 13:49 | 40.00249 | 10.62180 | 29937 ft | 390 kts | 316° |
| 2026-05-06 13:50 | 40.04641 | 10.58011 | 29939 ft | 391 kts | 316° |
| 2026-05-06 13:50 | 40.09032 | 10.53839 | 29940 ft | 391 kts | 316° |
| 2026-05-06 13:51 | 40.13428 | 10.49675 | 29936 ft | 390 kts | 317° |
| 2026-05-06 13:51 | 40.17809 | 10.45517 | 29940 ft | 389 kts | 316° |
| 2026-05-06 13:52 | 40.22178 | 10.41354 | 29936 ft | 390 kts | 316° |
| 2026-05-06 13:52 | 40.26551 | 10.37168 | 29935 ft | 389 kts | 316° |
| 2026-05-06 13:53 | 40.30902 | 10.32996 | 29939 ft | 387 kts | 315° |
| 2026-05-06 13:53 | 40.35228 | 10.28819 | 29941 ft | 387 kts | 315° |
| 2026-05-06 13:54 | 40.39561 | 10.24639 | 29940 ft | 388 kts | 315° |
| 2026-05-06 13:54 | 40.43896 | 10.20463 | 29936 ft | 388 kts | 315° |
| 2026-05-06 13:55 | 40.48227 | 10.16281 | 29937 ft | 387 kts | 315° |
| 2026-05-06 13:55 | 40.52568 | 10.12086 | 29936 ft | 388 kts | 315° |
| 2026-05-06 13:56 | 40.56896 | 10.07893 | 29939 ft | 388 kts | 315° |
| 2026-05-06 13:56 | 40.61224 | 10.03695 | 29938 ft | 388 kts | 315° |
| 2026-05-06 13:57 | 40.65560 | 9.99485 | 29942 ft | 388 kts | 315° |
| 2026-05-06 13:57 | 40.69882 | 9.95280 | 29936 ft | 386 kts | 315° |
| 2026-05-06 13:58 | 40.74196 | 9.91070 | 29934 ft | 385 kts | 315° |
| 2026-05-06 13:58 | 40.78489 | 9.86876 | 29939 ft | 384 kts | 315° |
| 2026-05-06 13:59 | 40.82769 | 9.82680 | 29937 ft | 383 kts | 313° |
| 2026-05-06 13:59 | 40.86883 | 9.78252 | 29934 ft | 382 kts | 311° |
| 2026-05-06 14:00 | 40.90958 | 9.73779 | 29940 ft | 381 kts | 311° |
| 2026-05-06 14:00 | 40.95030 | 9.69298 | 29937 ft | 382 kts | 311° |
| 2026-05-06 14:01 | 40.99100 | 9.64825 | 29940 ft | 381 kts | 311° |
| 2026-05-06 14:01 | 41.03173 | 9.60333 | 29935 ft | 382 kts | 311° |
| 2026-05-06 14:02 | 41.07245 | 9.55835 | 29932 ft | 381 kts | 311° |
| 2026-05-06 14:02 | 41.11319 | 9.51333 | 29930 ft | 382 kts | 311° |
| 2026-05-06 14:03 | 41.15396 | 9.46848 | 29930 ft | 382 kts | 311° |
| 2026-05-06 14:03 | 41.19476 | 9.42322 | 29928 ft | 382 kts | 311° |
| 2026-05-06 14:04 | 41.23548 | 9.37798 | 29927 ft | 382 kts | 311° |
| 2026-05-06 14:04 | 41.27611 | 9.33269 | 29927 ft | 380 kts | 310° |
| 2026-05-06 14:05 | 41.31659 | 9.28736 | 29924 ft | 381 kts | 310° |
| 2026-05-06 14:05 | 41.35714 | 9.24207 | 29925 ft | 381 kts | 310° |
| 2026-05-06 14:06 | 41.39766 | 9.19670 | 29927 ft | 382 kts | 311° |
| 2026-05-06 14:06 | 41.43818 | 9.15123 | 29921 ft | 382 kts | 310° |
| 2026-05-06 14:07 | 41.47868 | 9.10568 | 29918 ft | 382 kts | 310° |
| 2026-05-06 14:07 | 41.51916 | 9.06003 | 29925 ft | 382 kts | 311° |
| 2026-05-06 14:08 | 41.55974 | 9.01423 | 29928 ft | 383 kts | 311° |
| 2026-05-06 14:08 | 41.60037 | 8.96826 | 29926 ft | 383 kts | 311° |
| 2026-05-06 14:09 | 41.64097 | 8.92228 | 29924 ft | 383 kts | 311° |
| 2026-05-06 14:09 | 41.68153 | 8.87619 | 29929 ft | 384 kts | 311° |
| 2026-05-06 14:10 | 41.72206 | 8.83012 | 29929 ft | 382 kts | 311° |
| 2026-05-06 14:10 | 41.76365 | 8.78519 | 29931 ft | 388 kts | 316° |
| 2026-05-06 14:11 | 41.80960 | 8.74613 | 29932 ft | 396 kts | 322° |
| 2026-05-06 14:11 | 41.85780 | 8.71082 | 29935 ft | 395 kts | 323° |
| 2026-05-06 14:12 | 41.90610 | 8.67552 | 29938 ft | 396 kts | 323° |
| 2026-05-06 14:12 | 41.95435 | 8.64009 | 29934 ft | 396 kts | 323° |
| 2026-05-06 14:13 | 42.00247 | 8.60465 | 29596 ft | 393 kts | 323° |
| 2026-05-06 14:13 | 42.02640 | 8.58701 | 29326 ft | 392 kts | 323° |
| 2026-05-06 14:13 | 42.05021 | 8.56945 | 29000 ft | 390 kts | 323° |
| 2026-05-06 14:14 | 42.07383 | 8.55197 | 28642 ft | 388 kts | 323° |
| 2026-05-06 14:14 | 42.09733 | 8.53458 | 28265 ft | 385 kts | 323° |
| 2026-05-06 14:14 | 42.12075 | 8.51730 | 27871 ft | 383 kts | 323° |
| 2026-05-06 14:14 | 42.14406 | 8.50014 | 27491 ft | 379 kts | 323° |
| 2026-05-06 14:15 | 42.16710 | 8.48310 | 27110 ft | 377 kts | 323° |
| 2026-05-06 14:15 | 42.18995 | 8.46616 | 26735 ft | 374 kts | 323° |
| 2026-05-06 14:15 | 42.21262 | 8.44935 | 26375 ft | 371 kts | 323° |
| 2026-05-06 14:15 | 42.23507 | 8.43264 | 26010 ft | 368 kts | 323° |
| 2026-05-06 14:16 | 42.25732 | 8.41603 | 25638 ft | 365 kts | 323° |
| 2026-05-06 14:16 | 42.27944 | 8.39948 | 25271 ft | 363 kts | 323° |
| 2026-05-06 14:16 | 42.30140 | 8.38307 | 24906 ft | 360 kts | 322° |
| 2026-05-06 14:16 | 42.32328 | 8.36669 | 24533 ft | 358 kts | 322° |
| 2026-05-06 14:17 | 42.34496 | 8.35051 | 24171 ft | 355 kts | 323° |
| 2026-05-06 14:17 | 42.36648 | 8.33440 | 23821 ft | 353 kts | 322° |
| 2026-05-06 14:17 | 42.38784 | 8.31830 | 23453 ft | 351 kts | 322° |
| 2026-05-06 14:17 | 42.40903 | 8.30232 | 23111 ft | 349 kts | 322° |
| 2026-05-06 14:18 | 42.43015 | 8.28641 | 22765 ft | 347 kts | 322° |
| 2026-05-06 14:18 | 42.45111 | 8.27064 | 22420 ft | 345 kts | 322° |
| 2026-05-06 14:18 | 42.47201 | 8.25491 | 22074 ft | 343 kts | 322° |
| 2026-05-06 14:18 | 42.49278 | 8.23926 | 21739 ft | 340 kts | 322° |
| 2026-05-06 14:19 | 42.51337 | 8.22376 | 21397 ft | 338 kts | 322° |
| 2026-05-06 14:19 | 42.53385 | 8.20830 | 21047 ft | 336 kts | 322° |
| 2026-05-06 14:19 | 42.55421 | 8.19293 | 20708 ft | 335 kts | 323° |
| 2026-05-06 14:19 | 42.57448 | 8.17764 | 20370 ft | 333 kts | 322° |
| 2026-05-06 14:20 | 42.59457 | 8.16245 | 20025 ft | 331 kts | 323° |
| 2026-05-06 14:20 | 42.61459 | 8.14730 | 19682 ft | 329 kts | 323° |
| 2026-05-06 14:20 | 42.63448 | 8.13224 | 19339 ft | 327 kts | 323° |
| 2026-05-06 14:20 | 42.65426 | 8.11726 | 18991 ft | 326 kts | 323° |
| 2026-05-06 14:21 | 42.67398 | 8.10231 | 18640 ft | 324 kts | 323° |
| 2026-05-06 14:21 | 42.69354 | 8.08745 | 18299 ft | 322 kts | 323° |
| 2026-05-06 14:21 | 42.71302 | 8.07267 | 17980 ft | 320 kts | 323° |
| 2026-05-06 14:21 | 42.73235 | 8.05798 | 17636 ft | 318 kts | 323° |
| 2026-05-06 14:22 | 42.75161 | 8.04333 | 17294 ft | 316 kts | 323° |
| 2026-05-06 14:22 | 42.77176 | 8.03102 | 16942 ft | 323 kts | 338° |
| 2026-05-06 14:22 | 42.79417 | 8.02657 | 16772 ft | 331 kts | 355° |
| 2026-05-06 14:22 | 42.81741 | 8.02883 | 16798 ft | 336 kts | 1° |
| 2026-05-06 14:23 | 42.84051 | 8.03255 | 16592 ft | 334 kts | 2° |
| 2026-05-06 14:23 | 42.86351 | 8.03641 | 16178 ft | 333 kts | 2° |
| 2026-05-06 14:23 | 42.88639 | 8.04014 | 15792 ft | 331 kts | 1° |
| 2026-05-06 14:23 | 42.90914 | 8.04374 | 15450 ft | 328 kts | 1° |
| 2026-05-06 14:24 | 42.93169 | 8.04722 | 15096 ft | 325 kts | 1° |
| 2026-05-06 14:24 | 42.95405 | 8.05061 | 14752 ft | 322 kts | 1° |
| 2026-05-06 14:24 | 42.97618 | 8.05395 | 14405 ft | 319 kts | 1° |
| 2026-05-06 14:24 | 42.99812 | 8.05724 | 14051 ft | 317 kts | 2° |
| 2026-05-06 14:25 | 43.01992 | 8.06052 | 13703 ft | 314 kts | 2° |
| 2026-05-06 14:25 | 43.04149 | 8.06376 | 13366 ft | 311 kts | 2° |
| 2026-05-06 14:25 | 43.06286 | 8.06698 | 12996 ft | 309 kts | 2° |
| 2026-05-06 14:25 | 43.08413 | 8.07016 | 12622 ft | 307 kts | 2° |
| 2026-05-06 14:26 | 43.10536 | 8.07335 | 12246 ft | 306 kts | 2° |
| 2026-05-06 14:26 | 43.12642 | 8.07652 | 11872 ft | 304 kts | 2° |
| 2026-05-06 14:26 | 43.14737 | 8.07965 | 11479 ft | 302 kts | 2° |
| 2026-05-06 14:26 | 43.16822 | 8.08279 | 11135 ft | 300 kts | 2° |
| 2026-05-06 14:27 | 43.18883 | 8.08589 | 10777 ft | 298 kts | 2° |
| 2026-05-06 14:27 | 43.20940 | 8.08899 | 10401 ft | 296 kts | 2° |
| 2026-05-06 14:27 | 43.22975 | 8.09206 | 10146 ft | 294 kts | 3° |
| 2026-05-06 14:27 | 43.25012 | 8.09514 | 9905 ft | 294 kts | 3° |
| 2026-05-06 14:28 | 43.27035 | 8.09818 | 9727 ft | 292 kts | 1° |
| 2026-05-06 14:28 | 43.29028 | 8.09646 | 9522 ft | 282 kts | 338° |
| 2026-05-06 14:28 | 43.30698 | 8.08384 | 9163 ft | 271 kts | 314° |
| 2026-05-06 14:28 | 43.31826 | 8.06380 | 8768 ft | 264 kts | 296° |
| 2026-05-06 14:29 | 43.32705 | 8.04178 | 8377 ft | 264 kts | 295° |
| 2026-05-06 14:29 | 43.33571 | 8.01992 | 8202 ft | 262 kts | 295° |
| 2026-05-06 14:29 | 43.34453 | 7.99799 | 7999 ft | 263 kts | 296° |
| 2026-05-06 14:29 | 43.35343 | 7.97617 | 7787 ft | 262 kts | 296° |
| 2026-05-06 14:30 | 43.36234 | 7.95448 | 7587 ft | 260 kts | 296° |
| 2026-05-06 14:30 | 43.37123 | 7.93286 | 7394 ft | 260 kts | 296° |
| 2026-05-06 14:30 | 43.38013 | 7.91128 | 7191 ft | 260 kts | 296° |
| 2026-05-06 14:30 | 43.38900 | 7.88976 | 7012 ft | 259 kts | 296° |
| 2026-05-06 14:31 | 43.39787 | 7.86822 | 6785 ft | 258 kts | 296° |
| 2026-05-06 14:31 | 43.40670 | 7.84674 | 6572 ft | 259 kts | 296° |
| 2026-05-06 14:31 | 43.41572 | 7.82540 | 6398 ft | 258 kts | 299° |
| 2026-05-06 14:31 | 43.42567 | 7.80494 | 6193 ft | 258 kts | 301° |
| 2026-05-06 14:32 | 43.43583 | 7.78469 | 5986 ft | 257 kts | 301° |
| 2026-05-06 14:32 | 43.44598 | 7.76447 | 5777 ft | 257 kts | 301° |
| 2026-05-06 14:32 | 43.45612 | 7.74427 | 5537 ft | 256 kts | 301° |
| 2026-05-06 14:32 | 43.46619 | 7.72415 | 5290 ft | 256 kts | 301° |
| 2026-05-06 14:33 | 43.47628 | 7.70397 | 5017 ft | 255 kts | 301° |
| 2026-05-06 14:33 | 43.48623 | 7.68405 | 4774 ft | 250 kts | 301° |
| 2026-05-06 14:33 | 43.49596 | 7.66459 | 4524 ft | 245 kts | 301° |
| 2026-05-06 14:33 | 43.50546 | 7.64558 | 4341 ft | 237 kts | 301° |
| 2026-05-06 14:34 | 43.51464 | 7.62716 | 4172 ft | 230 kts | 301° |
| 2026-05-06 14:34 | 43.52353 | 7.60931 | 3999 ft | 223 kts | 301° |
| 2026-05-06 14:34 | 43.53216 | 7.59197 | 3816 ft | 216 kts | 301° |
| 2026-05-06 14:34 | 43.54054 | 7.57509 | 3638 ft | 210 kts | 301° |
| 2026-05-06 14:35 | 43.54869 | 7.55871 | 3463 ft | 205 kts | 301° |
| 2026-05-06 14:35 | 43.55664 | 7.54270 | 3281 ft | 199 kts | 301° |
| 2026-05-06 14:35 | 43.56436 | 7.52714 | 3109 ft | 194 kts | 301° |
| 2026-05-06 14:35 | 43.57186 | 7.51202 | 2928 ft | 189 kts | 301° |
| 2026-05-06 14:36 | 43.57914 | 7.49729 | 2735 ft | 184 kts | 301° |
| 2026-05-06 14:36 | 43.58625 | 7.48294 | 2555 ft | 179 kts | 301° |
| 2026-05-06 14:36 | 43.59324 | 7.46882 | 2338 ft | 177 kts | 301° |
| 2026-05-06 14:36 | 43.60012 | 7.45497 | 2104 ft | 172 kts | 301° |
| 2026-05-06 14:37 | 43.60658 | 7.44194 | 2072 ft | 155 kts | 300° |
| 2026-05-06 14:37 | 43.61249 | 7.43003 | 2001 ft | 148 kts | 300° |
| 2026-05-06 14:37 | 43.61824 | 7.41834 | 1980 ft | 147 kts | 301° |
| 2026-05-06 14:37 | 43.62401 | 7.40666 | 1973 ft | 147 kts | 300° |
| 2026-05-06 14:38 | 43.62977 | 7.39497 | 1974 ft | 147 kts | 300° |
| 2026-05-06 14:38 | 43.63557 | 7.38343 | 1997 ft | 146 kts | 300° |
| 2026-05-06 14:38 | 43.64143 | 7.37191 | 2046 ft | 147 kts | 301° |
| 2026-05-06 14:38 | 43.64743 | 7.36043 | 1982 ft | 147 kts | 302° |
| 2026-05-06 14:39 | 43.65356 | 7.34917 | 1899 ft | 146 kts | 301° |
| 2026-05-06 14:39 | 43.65974 | 7.33790 | 1881 ft | 147 kts | 303° |
| 2026-05-06 14:39 | 43.66598 | 7.32672 | 1729 ft | 146 kts | 303° |
| 2026-05-06 14:39 | 43.67234 | 7.31559 | 1565 ft | 146 kts | 303° |
| 2026-05-06 14:40 | 43.67864 | 7.30454 | 1384 ft | 147 kts | 302° |
| 2026-05-06 14:40 | 43.68457 | 7.29311 | 1226 ft | 146 kts | 296° |
| 2026-05-06 14:40 | 43.68853 | 7.28051 | 1086 ft | 141 kts | 279° |
| 2026-05-06 14:40 | 43.68950 | 7.26717 | 931 ft | 138 kts | 262° |
| 2026-05-06 14:41 | 43.68714 | 7.25465 | 672 ft | 133 kts | 240° |
| 2026-05-06 14:41 | 43.68150 | 7.24474 | 475 ft | 130 kts | 224° |
| 2026-05-06 14:41 | 43.67511 | 7.23607 | 278 ft | 128 kts | 223° |
| 2026-05-06 14:41 | 43.66882 | 7.22737 | 92 ft | 126 kts | 223° |
| 2026-05-06 14:42 | 43.66285 | 7.21919 | 29 ft | 102 kts | 223° |
| 2026-05-06 14:42 | 43.65990 | 7.21513 | 30 ft | 26 kts | 224° |
| 2026-05-06 14:42 | 43.65863 | 7.21342 | 28 ft | 24 kts | 224° |
| 2026-05-06 14:42 | 43.65746 | 7.21179 | 26 ft | 23 kts | 225° |
| 2026-05-06 14:43 | 43.65639 | 7.21024 | 24 ft | 15 kts | 239° |
| 2026-05-06 14:43 | 43.65658 | 7.20905 | 26 ft | 12 kts | 327° |
| 2026-05-06 14:43 | 43.65674 | 7.20894 | 26 ft | 0 kts | 343° |
| 2026-05-06 14:45 | 43.65686 | 7.20891 | 26 ft | 3 kts | 348° |
| 2026-05-06 14:45 | 43.65727 | 7.20881 | 27 ft | 8 kts | 352° |
| 2026-05-06 14:46 | 43.65788 | 7.20915 | 27 ft | 11 kts | 45° |
| 2026-05-06 14:46 | 43.65849 | 7.21001 | 28 ft | 13 kts | 45° |
| 2026-05-06 14:46 | 43.65920 | 7.21099 | 29 ft | 14 kts | 44° |
| 2026-05-06 14:46 | 43.65994 | 7.21200 | 31 ft | 15 kts | 45° |
| 2026-05-06 14:47 | 43.66069 | 7.21304 | 32 ft | 15 kts | 45° |
| 2026-05-06 14:47 | 43.66145 | 7.21408 | 34 ft | 15 kts | 45° |
| 2026-05-06 14:47 | 43.66221 | 7.21513 | 35 ft | 15 kts | 45° |
| 2026-05-06 14:47 | 43.66309 | 7.21607 | 35 ft | 16 kts | 358° |
| 2026-05-06 14:48 | 43.66392 | 7.21533 | 38 ft | 12 kts | 356° |
| 2026-05-06 14:48 | 43.66467 | 7.21507 | 40 ft | 11 kts | 316° |
| 2026-05-06 14:48 | 43.66474 | 7.21498 | 40 ft | 0 kts | 314° |